METAR v bližini

 

LJLJ - Ljubljana/Brnik, Slovenia
Oddaljenost od postaje: W 41km
Podatki zajeti: 20/10/2021 15:00
Delno oblačno
Delno oblačno
 Veter iz smeri SW
Veter: SW 26 km/h
Temperatura: 16°C
Rosišče: 8°C
Vlažnost: 59%
Tlak: 1022 hPa
Oblačnost: Delno oblačno
Vidljivost: 10 km
Podrobnosti o oblakih: Rahlo oblačno 91 m
Delno oblačno 7620 m
2021/10/20 13:00 LJLJ 201300Z 22014KT 190V250 9999 FEW003 SCT250 16/08 Q1022 NOSIG
LJMB - Maribor, Slovenia
Oddaljenost od postaje: NE 63km
Podatki zajeti: 20/10/2021 15:00
Jasno
Jasno
 Veter iz smeri SSW
Veter: SSW 28 km/h
Temperatura: 20°C
Rosišče: 8°C
Vlažnost: 46%
Tlak: 1017 hPa
Stanje: Jasno
Vidljivost: večja od 10 km
2021/10/20 13:00 LJMB 201300Z 21015KT CAVOK 20/08 Q1017
 
LJPZ - Portoroz, Slovenia
Oddaljenost od postaje: SW 130km
Podatki zajeti: 20/10/2021 15:00
Delno oblačno
Delno oblačno
 Veter iz smeri SW
Veter: SW 15 km/h
Temperatura: 18°C
Rosišče: 13°C
Vlažnost: 73%
Tlak: 1024 hPa
Oblačnost: Delno oblačno
Vidljivost: 10 km
Podrobnosti o oblakih: Rahlo oblačno 792 m
Delno oblačno 4572 m
2021/10/20 13:00 LJPZ 201300Z 22008KT 9999 FEW026 SCT150 18/13 Q1024
LJCE - Cerklje, Slovenia
Oddaljenost od postaje: ESE 49km
Podatki zajeti: 20/10/2021 15:00
Jasno
Jasno
 Veter iz smeri WSW
Veter: WSW 24 km/h
Temperatura: 20°C
Rosišče: 9°C
Vlažnost: 49%
Tlak: 1020 hPa
Stanje: Jasno
Vidljivost: večja od 10 km
2021/10/20 13:00 LJCE 201300Z 25013KT CAVOK 20/09 Q1020 RMK BLU
 
LDZA - Zagreb/Pleso, Croatia
Oddaljenost od postaje: ESE 96km
Podatki zajeti: 20/10/2021 15:00
Jasno
Jasno
 Veter iz smeri WSW
Veter: WSW 15 km/h
Temperatura: 22°C
Rosišče: 8°C
Vlažnost: 41%
Tlak: 1020 hPa
Stanje: Jasno
Vidljivost: večja od 10 km
2021/10/20 13:00 LDZA 201300Z 24008KT 190V280 CAVOK 22/08 Q1020 TEMPO 24012KT
LDRI - Rijeka/Omisalj, Croatia
Oddaljenost od postaje: SSW 109km
Podatki zajeti: 20/10/2021 15:00
Rahlo oblačno
Rahlo oblačno
 Veter iz smeri spremenljiv
Veter: spremenljiv 6 km/h
Temperatura: 19°C
Rosišče: 11°C
Vlažnost: 60%
Tlak: 1024 hPa
Oblačnost: Rahlo oblačno
Vidljivost: 10 km
Podrobnosti o oblakih: Rahlo oblačno 1219 m
2021/10/20 13:00 LDRI 201300Z VRB03KT 9999 FEW040 19/11 Q1024
 
LDPL - Pula, Croatia
Oddaljenost od postaje: SSW 164km
Podatki zajeti: 20/10/2021 15:00
Rahlo oblačno
Rahlo oblačno
 Veter iz smeri spremenljiv
Veter: spremenljiv 7 km/h
Temperatura: 18°C
Rosišče: 12°C
Vlažnost: 68%
Tlak: 1024 hPa
Oblačnost: Rahlo oblačno
Vidljivost: 10 km
Podrobnosti o oblakih: Rahlo oblačno 610 m
2021/10/20 13:00 LDPL 201300Z VRB04KT 9999 FEW020 18/12 Q1024 NOSIG
LOWK - Klagenfurt(Civ/M, Austria
Oddaljenost od postaje: NW 76km
Podatki zajeti: 20/10/2021 14:50
Rahlo oblačno
Rahlo oblačno
 Veter iz smeri E
Veter: E 7 km/h
Temperatura: 18°C
Rosišče: 8°C
Vlažnost: 52%
Tlak: 1018 hPa
Oblačnost: Rahlo oblačno
Vidljivost: 10 km
Podrobnosti o oblakih: Rahlo oblačno 1524 m
2021/10/20 12:50 LOWK 201250Z 09004KT 040V140 9999 FEW050 18/08 Q1018 NOSIG
 
LOWG - Graz (mil/Civ), Austria
Oddaljenost od postaje: NNE 100km
Podatki zajeti: 20/10/2021 14:50
Jasno
Jasno
 Veter iz smeri SSE
Veter: SSE 9 km/h
Temperatura: 18°C
Rosišče: 10°C
Vlažnost: 60%
Tlak: 1017 hPa
Stanje: Jasno
Vidljivost: večja od 10 km
2021/10/20 12:50 LOWG 201250Z 16005KT 090V200 CAVOK 18/10 Q1017 NOSIG
LOAN - Wr.neustadt East, Austria
Oddaljenost od postaje: NNE 212km
Podatki zajeti: 20/10/2021 15:00
Jasno
Jasno
 Veter iz smeri SSE
Veter: SSE 19 km/h
Stanje: Jasno
Vidljivost: večja od 10 km
2021/10/20 13:00 LOAN 201300Z 16010KT CAVOK
 
LIPQ - Ronchi Legionari, Italy
Oddaljenost od postaje: SW 35km
Podatki zajeti: 20/10/2021 14:50
Pretežno oblačno
Pretežno oblačno
 Veter iz smeri S
Veter: S 6 km/h
Temperatura: 17°C
Rosišče: 13°C
Vlažnost: 77%
Tlak: 1024 hPa
Oblačnost: Pretežno oblačno
Vidljivost: 8 km
Podrobnosti o oblakih: Rahlo oblačno 549 m
Pretežno oblačno 1006 m
2021/10/20 12:50 LIPQ 201250Z AUTO 18003KT 140V210 8000 FEW018/// BKN033/// 17/13 Q1024
LIVT - Trieste, Italy
Oddaljenost od postaje: WSW 109km
Podatki zajeti: 20/10/2021 14:55
Meglica, Oblačno
Meglica, Oblačno
 Veter iz smeri calm
Veter: Calm
Temperatura: 17°C
Rosišče: 14°C
Vlažnost: 83%
Tlak: 1023 hPa
Stanje: Meglica
Oblačnost: Oblačno
Vidljivost: 4 km
Podrobnosti o oblakih: Delno oblačno 610 m
Oblačno 914 m
2021/10/20 12:55 LIVT 201255Z 00000KT 4000 BR SCT020 OVC030 17/14 Q1023 RMK OVC QUK 0 QUL 0 VIS MAR 4 KM VIS MIN 4000
 
LIVO - Tarvisio, Italy
Oddaljenost od postaje: NNW 49km
Podatki zajeti: 20/10/2021 14:55
Jasno
Jasno
 Veter iz smeri SW
Veter: SW 19 km/h
Temperatura: 16°C
Rosišče: 8°C
Vlažnost: 59%
Tlak: 1020 hPa
Stanje: Jasno
Vidljivost: večja od 10 km
2021/10/20 12:55 LIVO 201255Z 23010KT CAVOK 16/08 Q1020 RMK BKN BKN230 VIS MIN 9999
LIPZ - Venezia/Tessera, Italy
Oddaljenost od postaje: WSW 217km
Podatki zajeti: 20/10/2021 14:50
Delno oblačno
Delno oblačno
 Veter iz smeri SSE
Veter: SSE 6 km/h
Temperatura: 17°C
Rosišče: 12°C
Vlažnost: 73%
Tlak: 1024 hPa
Oblačnost: Delno oblačno
Vidljivost: 6 km
2021/10/20 12:50 LIPZ 201250Z 16003KT 130V200 6000 NSC 17/12 Q1024 NOSIG
 
LHSM - Balaton, Hungary
Oddaljenost od postaje: ENE 177km
Podatki zajeti: 20/10/2021 14:45
Jasno
Jasno
 Veter iz smeri S
Veter: S 24 km/h
Temperatura: 20°C
Rosišče: 8°C
Vlažnost: 46%
Tlak: 1019 hPa
Oblačnost: Jasno
Vidljivost: 9 km
2021/10/20 12:45 LHSM 201245Z AUTO 19013KT 9000 NCD 20/08 Q1019 NOSIG